Time;durP1;ratioP1;P1;durP2;ratioP2;P2;SDS_P1;SDS_P2;PMS_P1;PMS_P2;Temp;Humidity;BMP_temperature;BMP_pressure;BME280_temperature;BME280_humidity;BME280_pressure;Samples;Min_cycle;Max_cycle;Signal;HPM_P1;HPM_P2
2024/01/28 00:01:16;;;;;;;1999.90;999.90;;;;;;;;;;5075469;28;20048;-82
2024/01/28 00:03:44;;;;;;;1999.90;999.90;;;;;;;;;;5081301;28;20052;-82
2024/01/28 00:06:11;;;;;;;1999.90;999.90;;;;;;;;;;5068087;28;20524;-85
2024/01/28 00:08:37;;;;;;;1999.90;999.90;;;;;;;;;;5069221;28;20084;-83
2024/01/28 00:11:04;;;;;;;1999.90;999.90;;;;;;;;;;5069932;28;20059;-84
2024/01/28 00:13:34;;;;;;;1999.90;999.90;;;;;;;;;;5077147;28;20055;-85
2024/01/28 00:16:00;;;;;;;1999.90;999.90;;;;;;;;;;5078924;28;20052;-83
2024/01/28 00:18:27;;;;;;;1999.90;999.90;;;;;;;;;;5068789;28;20049;-83
2024/01/28 00:21:10;;;;;;;1999.90;999.90;;;;;;;;;;5069475;28;20634;-82
2024/01/28 00:23:36;;;;;;;1999.90;999.90;;;;;;;;;;5067872;28;20500;-82
2024/01/28 00:26:02;;;;;;;1999.90;999.90;;;;;;;;;;5071532;28;20052;-82
2024/01/28 00:28:29;;;;;;;1999.90;999.90;;;;;;;;;;5071898;28;20056;-82
2024/01/28 00:30:55;;;;;;;1999.90;999.90;;;;;;;;;;5078195;28;20052;-82
2024/01/28 00:33:22;;;;;;;1999.90;999.90;;;;;;;;;;5061705;28;20071;-82
2024/01/28 00:35:49;;;;;;;1999.90;999.90;;;;;;;;;;5076376;28;20044;-82
2024/01/28 00:38:16;;;;;;;1999.90;999.90;;;;;;;;;;5076244;28;20087;-81
2024/01/28 00:40:43;;;;;;;1999.90;999.90;;;;;;;;;;5076037;28;20051;-82
2024/01/28 00:43:10;;;;;;;1999.90;999.90;;;;;;;;;;5076461;28;20136;-81
2024/01/28 00:45:40;;;;;;;1999.90;999.90;;;;;;;;;;5076251;28;20044;-82
2024/01/28 00:48:06;;;;;;;1999.90;999.90;;;;;;;;;;5075997;28;20045;-82
2024/01/28 00:50:33;;;;;;;1999.90;999.90;;;;;;;;;;5076024;28;20400;-82
2024/01/28 00:53:00;;;;;;;1999.90;999.90;;;;;;;;;;5084590;28;20095;-82
2024/01/28 00:55:28;;;;;;;1999.90;999.90;;;;;;;;;;5076476;28;20041;-83
2024/01/28 00:57:54;;;;;;;1999.90;999.90;;;;;;;;;;5079681;28;20053;-81
2024/01/28 01:00:22;;;;;;;1999.90;999.90;;;;;;;;;;5083597;28;20052;-82
2024/01/28 01:02:48;;;;;;;1999.90;999.90;;;;;;;;;;5075492;28;20053;-82
2024/01/28 01:05:15;;;;;;;1999.90;999.90;;;;;;;;;;5075626;28;20057;-81
2024/01/28 01:07:41;;;;;;;1999.90;999.90;;;;;;;;;;5067482;28;20041;-84
2024/01/28 01:10:09;;;;;;;1999.90;999.90;;;;;;;;;;5091729;28;20040;-82
2024/01/28 01:12:37;;;;;;;1999.90;999.90;;;;;;;;;;5082675;28;20056;-82
2024/01/28 01:15:05;;;;;;;1999.90;999.90;;;;;;;;;;5077198;28;20051;-82
2024/01/28 01:17:31;;;;;;;1999.90;999.90;;;;;;;;;;5073307;28;20044;-82
2024/01/28 01:19:58;;;;;;;1999.90;999.90;;;;;;;;;;5075957;28;20045;-83
2024/01/28 01:22:24;;;;;;;1999.90;999.90;;;;;;;;;;5080571;28;20055;-82
2024/01/28 01:24:51;;;;;;;1999.90;999.90;;;;;;;;;;5075900;28;20055;-81
2024/01/28 01:27:17;;;;;;;1999.90;999.90;;;;;;;;;;5075890;28;20131;-82
2024/01/28 01:29:45;;;;;;;1999.90;999.90;;;;;;;;;;5075616;28;20044;-83
2024/01/28 01:32:12;;;;;;;1999.90;999.90;;;;;;;;;;5075419;28;20406;-81
2024/01/28 01:34:39;;;;;;;1999.90;999.90;;;;;;;;;;5075572;28;20114;-84
2024/01/28 01:37:05;;;;;;;1999.90;999.90;;;;;;;;;;5075625;28;20040;-81
2024/01/28 01:39:32;;;;;;;1999.90;999.90;;;;;;;;;;5075117;28;20579;-82
2024/01/28 01:41:59;;;;;;;1999.90;999.90;;;;;;;;;;5075093;28;20044;-83
2024/01/28 01:44:26;;;;;;;1999.90;999.90;;;;;;;;;;5075396;28;20044;-82
2024/01/28 01:46:54;;;;;;;1999.90;999.90;;;;;;;;;;5076328;28;20044;-82
2024/01/28 01:49:21;;;;;;;1999.90;999.90;;;;;;;;;;5080258;28;20124;-83
2024/01/28 01:51:47;;;;;;;1999.90;999.90;;;;;;;;;;5079327;28;20056;-82
2024/01/28 01:54:14;;;;;;;1999.90;999.90;;;;;;;;;;5081805;28;20054;-83
2024/01/28 01:56:41;;;;;;;1999.90;999.90;;;;;;;;;;5072647;28;20055;-82
2024/01/28 01:59:07;;;;;;;1999.90;999.90;;;;;;;;;;5077820;28;20044;-82
2024/01/28 02:01:34;;;;;;;1999.90;999.90;;;;;;;;;;5087937;28;20515;-84
2024/01/28 02:04:02;;;;;;;1999.90;999.90;;;;;;;;;;5064267;28;20413;-82
2024/01/28 02:06:29;;;;;;;1999.90;999.90;;;;;;;;;;5081196;28;20052;-83
2024/01/28 02:08:56;;;;;;;1999.90;999.90;;;;;;;;;;5077037;28;20054;-82
2024/01/28 02:11:22;;;;;;;1999.90;999.90;;;;;;;;;;5087250;28;20049;-84
2024/01/28 02:13:49;;;;;;;1999.90;999.90;;;;;;;;;;5080622;28;20485;-82
2024/01/28 02:16:15;;;;;;;1999.90;999.90;;;;;;;;;;5074492;28;20132;-83
2024/01/28 02:18:42;;;;;;;1999.90;999.90;;;;;;;;;;5073510;28;20051;-83
2024/01/28 02:21:10;;;;;;;1999.90;999.90;;;;;;;;;;5061707;28;20053;-85
2024/01/28 02:23:38;;;;;;;1999.90;999.90;;;;;;;;;;5070629;28;20066;-83
2024/01/28 02:26:04;;;;;;;1999.90;999.90;;;;;;;;;;5073412;28;20055;-83
2024/01/28 02:28:31;;;;;;;1999.90;999.90;;;;;;;;;;5073746;28;20051;-82
2024/01/28 02:30:58;;;;;;;1999.90;999.90;;;;;;;;;;5068951;28;20099;-86
2024/01/28 02:33:24;;;;;;;1999.90;999.90;;;;;;;;;;5082356;28;20408;-82
2024/01/28 02:35:51;;;;;;;1999.90;999.90;;;;;;;;;;5083440;28;20044;-83
2024/01/28 02:38:17;;;;;;;1999.90;999.90;;;;;;;;;;5082517;28;20055;-82
2024/01/28 02:40:46;;;;;;;1999.90;999.90;;;;;;;;;;5079443;28;20055;-83
2024/01/28 02:43:12;;;;;;;1999.90;999.90;;;;;;;;;;5074964;28;20044;-85
2024/01/28 02:45:39;;;;;;;1999.90;999.90;;;;;;;;;;5076962;28;20131;-83
2024/01/28 02:48:06;;;;;;;1999.90;999.90;;;;;;;;;;5074415;28;20477;-82
2024/01/28 02:50:32;;;;;;;1999.90;999.90;;;;;;;;;;5073528;28;20131;-82
2024/01/28 02:52:59;;;;;;;1999.90;999.90;;;;;;;;;;5074522;28;20049;-83
2024/01/28 02:55:25;;;;;;;1999.90;999.90;;;;;;;;;;5075099;28;20044;-82
2024/01/28 02:57:53;;;;;;;1999.90;999.90;;;;;;;;;;5080338;28;20055;-82
2024/01/28 03:00:20;;;;;;;1999.90;999.90;;;;;;;;;;5077385;28;20044;-86
2024/01/28 03:02:46;;;;;;;1999.90;999.90;;;;;;;;;;5077757;28;20067;-82
2024/01/28 03:05:13;;;;;;;1999.90;999.90;;;;;;;;;;5078238;28;20057;-83
2024/01/28 03:07:40;;;;;;;1999.90;999.90;;;;;;;;;;5080648;28;20044;-82
2024/01/28 03:10:08;;;;;;;1999.90;999.90;;;;;;;;;;5073694;28;20074;-83
2024/01/28 03:12:35;;;;;;;1999.90;999.90;;;;;;;;;;5073454;28;20110;-84
2024/01/28 03:15:03;;;;;;;1999.90;999.90;;;;;;;;;;5069496;28;20074;-83
2024/01/28 03:17:30;;;;;;;1999.90;999.90;;;;;;;;;;5077791;28;20477;-83
2024/01/28 03:19:56;;;;;;;1999.90;999.90;;;;;;;;;;5071676;28;20482;-84
2024/01/28 03:22:26;;;;;;;1999.90;999.90;;;;;;;;;;5071449;28;20060;-83
2024/01/28 03:24:53;;;;;;;1999.90;999.90;;;;;;;;;;5066235;28;20044;-82
2024/01/28 03:27:19;;;;;;;1999.90;999.90;;;;;;;;;;5080870;28;20083;-83
2024/01/28 03:29:46;;;;;;;1999.90;999.90;;;;;;;;;;5072951;28;20040;-83
2024/01/28 03:32:14;;;;;;;1999.90;999.90;;;;;;;;;;5076202;28;20052;-83
2024/01/28 03:34:40;;;;;;;1999.90;999.90;;;;;;;;;;5067485;28;20044;-83
2024/01/28 03:37:07;;;;;;;1999.90;999.90;;;;;;;;;;5072851;28;20493;-85
2024/01/28 03:39:33;;;;;;;1999.90;999.90;;;;;;;;;;5073901;28;20055;-84
2024/01/28 03:41:59;;;;;;;1999.90;999.90;;;;;;;;;;5064475;28;20048;-84
2024/01/28 03:44:26;;;;;;;1999.90;999.90;;;;;;;;;;5073021;28;20040;-83
2024/01/28 03:46:54;;;;;;;1999.90;999.90;;;;;;;;;;5079608;28;20040;-83
2024/01/28 03:49:22;;;;;;;1999.90;999.90;;;;;;;;;;5074810;28;20048;-83
2024/01/28 03:51:48;;;;;;;1999.90;999.90;;;;;;;;;;5078470;28;20504;-83
2024/01/28 03:54:15;;;;;;;1999.90;999.90;;;;;;;;;;5081433;28;20060;-83
2024/01/28 03:56:41;;;;;;;1999.90;999.90;;;;;;;;;;5083015;28;20044;-83
2024/01/28 03:59:08;;;;;;;1999.90;999.90;;;;;;;;;;5084821;28;20045;-83
2024/01/28 04:01:35;;;;;;;1999.90;999.90;;;;;;;;;;5069133;28;20123;-83
2024/01/28 04:04:01;;;;;;;1999.90;999.90;;;;;;;;;;5072720;28;20049;-83
2024/01/28 04:06:29;;;;;;;1999.90;999.90;;;;;;;;;;5072330;28;20070;-83
2024/01/28 04:08:56;;;;;;;1999.90;999.90;;;;;;;;;;5071762;28;20044;-83
2024/01/28 04:11:25;;;;;;;1999.90;999.90;;;;;;;;;;5078509;28;20135;-83
2024/01/28 04:13:51;;;;;;;1999.90;999.90;;;;;;;;;;5081841;28;20135;-83
2024/01/28 04:16:18;;;;;;;1999.90;999.90;;;;;;;;;;5067427;28;20046;-83
2024/01/28 04:18:44;;;;;;;1999.90;999.90;;;;;;;;;;5077248;28;20484;-83
2024/01/28 04:21:11;;;;;;;1999.90;999.90;;;;;;;;;;5083231;28;20127;-84
2024/01/28 04:23:39;;;;;;;1999.90;999.90;;;;;;;;;;5078062;28;20043;-84
2024/01/28 04:26:06;;;;;;;1999.90;999.90;;;;;;;;;;5074372;28;20044;-83
2024/01/28 04:28:32;;;;;;;1999.90;999.90;;;;;;;;;;5077808;28;20045;-84
2024/01/28 04:30:59;;;;;;;1999.90;999.90;;;;;;;;;;5078469;28;20044;-83
2024/01/28 04:33:25;;;;;;;1999.90;999.90;;;;;;;;;;5077201;28;20053;-84
2024/01/28 04:35:52;;;;;;;1999.90;999.90;;;;;;;;;;5073839;28;20052;-86
2024/01/28 04:38:18;;;;;;;1999.90;999.90;;;;;;;;;;5079350;28;20049;-84
2024/01/28 04:40:46;;;;;;;1999.90;999.90;;;;;;;;;;5070223;28;20047;-83
2024/01/28 04:43:12;;;;;;;1999.90;999.90;;;;;;;;;;5076399;28;20045;-83
2024/01/28 04:45:39;;;;;;;1999.90;999.90;;;;;;;;;;5087392;28;20507;-84
2024/01/28 04:48:07;;;;;;;1999.90;999.90;;;;;;;;;;5075719;28;20045;-84
2024/01/28 04:50:33;;;;;;;1999.90;999.90;;;;;;;;;;5083851;28;20075;-83
2024/01/28 04:53:00;;;;;;;1999.90;999.90;;;;;;;;;;5081217;28;20051;-85
2024/01/28 04:55:26;;;;;;;1999.90;999.90;;;;;;;;;;5086302;28;20407;-82
2024/01/28 04:57:54;;;;;;;1999.90;999.90;;;;;;;;;;5080119;28;20091;-84
2024/01/28 05:00:21;;;;;;;1999.90;999.90;;;;;;;;;;5081802;28;20149;-83
2024/01/28 05:02:47;;;;;;;1999.90;999.90;;;;;;;;;;5087234;28;20563;-83
2024/01/28 05:05:14;;;;;;;1999.90;999.90;;;;;;;;;;5072490;28;20057;-85
2024/01/28 05:07:41;;;;;;;1999.90;999.90;;;;;;;;;;5054003;28;20135;-84
2024/01/28 05:10:10;;;;;;;1999.90;999.90;;;;;;;;;;5054060;28;20037;-84
2024/01/28 05:12:37;;;;;;;1999.90;999.90;;;;;;;;;;5063808;28;20127;-84
2024/01/28 05:15:07;;;;;;;1999.90;999.90;;;;;;;;;;5058114;28;20057;-84
2024/01/28 05:17:36;;;;;;;1999.90;999.90;;;;;;;;;;5059353;28;20041;-85
2024/01/28 05:20:04;;;;;;;1999.90;999.90;;;;;;;;;;5062966;28;20055;-84
2024/01/28 05:22:30;;;;;;;1999.90;999.90;;;;;;;;;;5055921;28;20493;-84
2024/01/28 05:25:00;;;;;;;1999.90;999.90;;;;;;;;;;5049487;28;20044;-84
2024/01/28 05:27:27;;;;;;;1999.90;999.90;;;;;;;;;;5046946;28;20075;-84
2024/01/28 05:29:55;;;;;;;1999.90;999.90;;;;;;;;;;5062727;28;20049;-84
2024/01/28 05:32:23;;;;;;;1999.90;999.90;;;;;;;;;;5056720;28;20136;-85
2024/01/28 05:34:50;;;;;;;1999.90;999.90;;;;;;;;;;5056752;28;20478;-86
2024/01/28 05:37:16;;;;;;;1999.90;999.90;;;;;;;;;;5057684;28;20140;-85
2024/01/28 05:39:44;;;;;;;1999.90;999.90;;;;;;;;;;5063391;28;20072;-84
2024/01/28 05:42:10;;;;;;;1999.90;999.90;;;;;;;;;;5053127;28;20512;-85
2024/01/28 05:44:37;;;;;;;1999.90;999.90;;;;;;;;;;5060515;28;20487;-87
2024/01/28 05:47:04;;;;;;;1999.90;999.90;;;;;;;;;;5066381;28;20738;-86
2024/01/28 05:49:32;;;;;;;1999.90;999.90;;;;;;;;;;5057080;28;20127;-84
2024/01/28 05:51:58;;;;;;;1999.90;999.90;;;;;;;;;;5063983;28;20041;-87
2024/01/28 05:54:25;;;;;;;1999.90;999.90;;;;;;;;;;5053539;28;20051;-84
2024/01/28 05:56:51;;;;;;;1999.90;999.90;;;;;;;;;;5056720;28;20045;-84
2024/01/28 05:59:18;;;;;;;1999.90;999.90;;;;;;;;;;5052628;28;20053;-86
2024/01/28 06:01:44;;;;;;;1999.90;999.90;;;;;;;;;;5062406;28;20503;-84
2024/01/28 06:04:11;;;;;;;1999.90;999.90;;;;;;;;;;5057491;28;20049;-88
2024/01/28 06:06:39;;;;;;;1999.90;999.90;;;;;;;;;;5054387;28;20382;-85
2024/01/28 06:09:06;;;;;;;1999.90;999.90;;;;;;;;;;5062670;28;20073;-85
2024/01/28 06:11:33;;;;;;;1999.90;999.90;;;;;;;;;;5058163;28;20106;-85
2024/01/28 06:13:59;;;;;;;1999.90;999.90;;;;;;;;;;5057616;28;20048;-86
2024/01/28 06:16:25;;;;;;;1999.90;999.90;;;;;;;;;;5059642;28;20469;-85
2024/01/28 06:18:52;;;;;;;1999.90;999.90;;;;;;;;;;5054314;28;20041;-87
2024/01/28 06:21:18;;;;;;;1999.90;999.90;;;;;;;;;;5066745;28;20048;-86
2024/01/28 06:23:46;;;;;;;1999.90;999.90;;;;;;;;;;5069081;28;20413;-85
2024/01/28 06:26:13;;;;;;;1999.90;999.90;;;;;;;;;;5055574;28;20084;-85
2024/01/28 06:28:39;;;;;;;1999.90;999.90;;;;;;;;;;5051308;28;20047;-86
2024/01/28 06:31:06;;;;;;;1999.90;999.90;;;;;;;;;;5051814;28;20060;-85
2024/01/28 06:33:33;;;;;;;1999.90;999.90;;;;;;;;;;5054429;28;20048;-86
2024/01/28 06:36:00;;;;;;;1999.90;999.90;;;;;;;;;;5066346;28;20132;-85
2024/01/28 06:38:26;;;;;;;1999.90;999.90;;;;;;;;;;5056880;28;20049;-85
2024/01/28 06:40:55;;;;;;;1999.90;999.90;;;;;;;;;;5059386;28;20460;-85
2024/01/28 06:43:22;;;;;;;1999.90;999.90;;;;;;;;;;5054549;28;20491;-86
2024/01/28 06:45:49;;;;;;;1999.90;999.90;;;;;;;;;;5059875;28;20045;-86
2024/01/28 06:48:16;;;;;;;1999.90;999.90;;;;;;;;;;5065661;28;20052;-86
2024/01/28 06:50:43;;;;;;;1999.90;999.90;;;;;;;;;;5055491;28;20053;-85
2024/01/28 06:53:10;;;;;;;1999.90;999.90;;;;;;;;;;5055618;28;20045;-85
2024/01/28 06:55:36;;;;;;;1999.90;999.90;;;;;;;;;;5053788;28;20516;-87
2024/01/28 06:58:05;;;;;;;1999.90;999.90;;;;;;;;;;5058017;28;20429;-89
2024/01/28 07:00:31;;;;;;;1999.90;999.90;;;;;;;;;;5061514;28;20106;-87
2024/01/28 07:02:58;;;;;;;1999.90;999.90;;;;;;;;;;5052138;28;20059;-85
2024/01/28 07:05:25;;;;;;;1999.90;999.90;;;;;;;;;;5066854;28;20048;-87
2024/01/28 07:07:51;;;;;;;1999.90;999.90;;;;;;;;;;5075652;28;20041;-85
2024/01/28 07:10:18;;;;;;;1999.90;999.90;;;;;;;;;;5072871;28;20040;-85
2024/01/28 07:12:44;;;;;;;1999.90;999.90;;;;;;;;;;5073965;28;20056;-89
2024/01/28 07:15:12;;;;;;;1999.90;999.90;;;;;;;;;;5072277;28;20470;-87
2024/01/28 07:17:39;;;;;;;1999.90;999.90;;;;;;;;;;5076055;28;20515;-86
2024/01/28 07:20:05;;;;;;;1999.90;999.90;;;;;;;;;;5068564;28;20131;-86
2024/01/28 07:22:32;;;;;;;1999.90;999.90;;;;;;;;;;5077001;28;20686;-86
2024/01/28 07:24:58;;;;;;;1999.90;999.90;;;;;;;;;;5073680;28;20047;-86
2024/01/28 07:27:25;;;;;;;1999.90;999.90;;;;;;;;;;5075365;28;20054;-86
2024/01/28 07:29:51;;;;;;;1999.90;999.90;;;;;;;;;;5074194;28;20044;-86
2024/01/28 07:32:19;;;;;;;1999.90;999.90;;;;;;;;;;5067526;28;20040;-87
2024/01/28 07:34:46;;;;;;;1999.90;999.90;;;;;;;;;;5073536;28;20051;-88
2024/01/28 07:37:12;;;;;;;1999.90;999.90;;;;;;;;;;5076179;28;20507;-87
2024/01/28 07:39:39;;;;;;;1999.90;999.90;;;;;;;;;;5074725;28;20041;-87
2024/01/28 07:42:05;;;;;;;1999.90;999.90;;;;;;;;;;5080747;28;20048;-88
2024/01/28 07:44:32;;;;;;;1999.90;999.90;;;;;;;;;;5079554;28;20053;-87
2024/01/28 07:47:00;;;;;;;1999.90;999.90;;;;;;;;;;5078829;28;20117;-87
2024/01/28 07:49:28;;;;;;;1999.90;999.90;;;;;;;;;;5079378;28;20047;-87
2024/01/28 07:51:55;;;;;;;1999.90;999.90;;;;;;;;;;5085531;28;20052;-88
2024/01/28 07:54:21;;;;;;;1999.90;999.90;;;;;;;;;;5077386;28;20056;-87
2024/01/28 07:56:48;;;;;;;1999.90;999.90;;;;;;;;;;5082451;28;20373;-87
2024/01/28 07:59:14;;;;;;;1999.90;999.90;;;;;;;;;;5081514;28;20054;-88
2024/01/28 08:01:41;;;;;;;1999.90;999.90;;;;;;;;;;5075886;28;20127;-87
2024/01/28 08:04:07;;;;;;;1999.90;999.90;;;;;;;;;;5076462;28;20516;-87
2024/01/28 08:06:35;;;;;;;1999.90;999.90;;;;;;;;;;5068808;28;20040;-87
2024/01/28 08:09:01;;;;;;;1999.90;999.90;;;;;;;;;;5074792;28;20048;-88
2024/01/28 08:11:28;;;;;;;1999.90;999.90;;;;;;;;;;5074443;28;20127;-88
2024/01/28 08:13:54;;;;;;;1999.90;999.90;;;;;;;;;;5068265;28;20051;-89
2024/01/28 08:16:21;;;;;;;1999.90;999.90;;;;;;;;;;5073420;28;20045;-89
2024/01/28 08:18:48;;;;;;;1999.90;999.90;;;;;;;;;;5074182;28;20048;-89
2024/01/28 08:21:29;;;;;;;1999.90;999.90;;;;;;;;;;5082095;28;20047;-90
2024/01/28 08:23:57;;;;;;;1999.90;999.90;;;;;;;;;;5078847;28;20040;-90
2024/01/28 08:26:24;;;;;;;1999.90;999.90;;;;;;;;;;5083044;28;20055;-88
2024/01/28 08:28:51;;;;;;;1999.90;999.90;;;;;;;;;;5074229;28;20105;-89
2024/01/28 08:31:17;;;;;;;1999.90;999.90;;;;;;;;;;5084763;28;20048;-90
2024/01/28 08:33:44;;;;;;;1999.90;999.90;;;;;;;;;;5079993;28;20048;-89
2024/01/28 08:36:10;;;;;;;1999.90;999.90;;;;;;;;;;5077112;28;20055;-90
2024/01/28 08:38:37;;;;;;;1999.90;999.90;;;;;;;;;;5078873;28;20099;-90
2024/01/28 08:41:05;;;;;;;1999.90;999.90;;;;;;;;;;5078122;28;20513;-91
2024/01/28 08:43:31;;;;;;;1999.90;999.90;;;;;;;;;;5075924;28;20048;-91
2024/01/28 08:46:00;;;;;;;1999.90;999.90;;;;;;;;;;5082720;28;20062;-94
2024/01/28 08:48:27;;;;;;;1999.90;999.90;;;;;;;;;;5089430;28;20052;-91
2024/01/28 08:50:53;;;;;;;1999.90;999.90;;;;;;;;;;5073118;28;20047;-95
2024/01/28 08:53:20;;;;;;;1999.90;999.90;;;;;;;;;;5075768;28;20048;-94
2024/01/28 08:55:47;;;;;;;1999.90;999.90;;;;;;;;;;5060192;28;20052;-94
2024/01/28 08:58:15;;;;;;;1999.90;999.90;;;;;;;;;;5082793;28;20055;-94
2024/01/28 09:00:42;;;;;;;1999.90;999.90;;;;;;;;;;5082355;28;20079;-96
2024/01/28 09:03:08;;;;;;;1999.90;999.90;;;;;;;;;;5081100;28;20051;-94
2024/01/28 09:05:35;;;;;;;1999.90;999.90;;;;;;;;;;5079476;28;20056;-89
2024/01/28 09:08:02;;;;;;;1999.90;999.90;;;;;;;;;;5071612;28;20067;-94
2024/01/28 09:10:28;;;;;;;1999.90;999.90;;;;;;;;;;5072209;28;20127;-92
2024/01/28 09:12:55;;;;;;;1999.90;999.90;;;;;;;;;;5080659;28;20061;-90
2024/01/28 09:15:23;;;;;;;1999.90;999.90;;;;;;;;;;5080357;28;20131;-92
2024/01/28 09:17:50;;;;;;;1999.90;999.90;;;;;;;;;;5080646;28;20055;-93
2024/01/28 09:20:16;;;;;;;1999.90;999.90;;;;;;;;;;5080523;28;20054;-91
2024/01/28 09:22:43;;;;;;;1999.90;999.90;;;;;;;;;;5077187;28;20140;-92
2024/01/28 09:25:10;;;;;;;1999.90;999.90;;;;;;;;;;5081942;28;20075;-92
2024/01/28 09:27:37;;;;;;;1999.90;999.90;;;;;;;;;;5080124;28;20128;-90
2024/01/28 09:30:06;;;;;;;1999.90;999.90;;;;;;;;;;5080991;28;20053;-90
2024/01/28 09:32:34;;;;;;;1999.90;999.90;;;;;;;;;;5076877;28;20127;-93
2024/01/28 09:35:00;;;;;;;1999.90;999.90;;;;;;;;;;5074597;28;20048;-93
2024/01/28 09:37:27;;;;;;;1999.90;999.90;;;;;;;;;;5082933;28;20052;-91
2024/01/28 09:39:53;;;;;;;1999.90;999.90;;;;;;;;;;5079122;28;20041;-92
2024/01/28 09:42:24;;;;;;;1999.90;999.90;;;;;;;;;;5077186;28;20078;-92
2024/01/28 09:44:50;;;;;;;1999.90;999.90;;;;;;;;;;5081542;28;20550;-92
2024/01/28 09:47:18;;;;;;;1999.90;999.90;;;;;;;;;;5079295;28;20053;-91
2024/01/28 09:49:47;;;;;;;1999.90;999.90;;;;;;;;;;5085291;28;20067;-93
2024/01/28 09:52:14;;;;;;;1999.90;999.90;;;;;;;;;;5079315;28;20055;-90
2024/01/28 09:54:41;;;;;;;1999.90;999.90;;;;;;;;;;5081896;28;20056;-91
2024/01/28 09:57:09;;;;;;;1999.90;999.90;;;;;;;;;;5076783;28;20052;-94
2024/01/28 09:59:36;;;;;;;1999.90;999.90;;;;;;;;;;5079937;28;20041;-94
2024/01/28 10:02:04;;;;;;;1999.90;999.90;;;;;;;;;;5082240;28;20056;-92
2024/01/28 10:04:31;;;;;;;1999.90;999.90;;;;;;;;;;5074849;28;20556;-93
2024/01/28 10:06:59;;;;;;;1999.90;999.90;;;;;;;;;;5067657;28;20053;-94
2024/01/28 10:09:26;;;;;;;1999.90;999.90;;;;;;;;;;5079888;28;20045;-92
2024/01/28 10:11:53;;;;;;;1999.90;999.90;;;;;;;;;;5084704;28;20044;-92
2024/01/28 10:14:19;;;;;;;1999.90;999.90;;;;;;;;;;5082063;28;20048;-93
2024/01/28 10:16:47;;;;;;;1999.90;999.90;;;;;;;;;;5079229;28;20129;-89
2024/01/28 10:19:14;;;;;;;1999.90;999.90;;;;;;;;;;5076040;28;20040;-92
2024/01/28 10:21:41;;;;;;;1999.90;999.90;;;;;;;;;;5075524;28;20045;-93
2024/01/28 10:24:12;;;;;;;1999.90;999.90;;;;;;;;;;5079171;28;20058;-95
2024/01/28 10:26:39;;;;;;;1999.90;999.90;;;;;;;;;;5096218;28;20091;-86
2024/01/28 10:29:09;;;;;;;1999.90;999.90;;;;;;;;;;5090353;28;20062;-92
2024/01/28 10:31:36;;;;;;;1999.90;999.90;;;;;;;;;;5085221;28;20048;-87
2024/01/28 10:34:03;;;;;;;1999.90;999.90;;;;;;;;;;5082807;28;20053;-95
2024/01/28 10:36:32;;;;;;;1999.90;999.90;;;;;;;;;;5082877;28;20119;-93
2024/01/28 10:39:03;;;;;;;1999.90;999.90;;;;;;;;;;5079954;28;20056;-92
2024/01/28 10:41:34;;;;;;;1999.90;999.90;;;;;;;;;;5085963;28;20079;-91
2024/01/28 10:44:03;;;;;;;1999.90;999.90;;;;;;;;;;5081448;28;20436;-92
2024/01/28 10:46:35;;;;;;;1999.90;999.90;;;;;;;;;;5078745;28;20063;-90
2024/01/28 10:49:05;;;;;;;1999.90;999.90;;;;;;;;;;5077634;28;20112;-90
2024/01/28 10:51:34;;;;;;;1999.90;999.90;;;;;;;;;;5077930;28;20053;-92
2024/01/28 10:54:03;;;;;;;1999.90;999.90;;;;;;;;;;5071978;28;20051;-92
2024/01/28 10:56:32;;;;;;;1999.90;999.90;;;;;;;;;;5076761;28;20056;-90
2024/01/28 10:58:58;;;;;;;1999.90;999.90;;;;;;;;;;5078740;28;20060;-88
2024/01/28 11:01:25;;;;;;;1999.90;999.90;;;;;;;;;;5089694;28;20149;-89
2024/01/28 11:03:53;;;;;;;1999.90;999.90;;;;;;;;;;5081538;28;20053;-91
2024/01/28 11:06:20;;;;;;;1999.90;999.90;;;;;;;;;;5077463;28;20047;-92
2024/01/28 11:08:47;;;;;;;1999.90;999.90;;;;;;;;;;5068636;28;20110;-88
2024/01/28 11:11:14;;;;;;;1999.90;999.90;;;;;;;;;;5072955;28;20054;-89
2024/01/28 11:13:44;;;;;;;1999.90;999.90;;;;;;;;;;5079149;28;20525;-88
2024/01/28 11:16:12;;;;;;;1999.90;999.90;;;;;;;;;;5076693;28;20493;-88
2024/01/28 11:18:38;;;;;;;1999.90;999.90;;;;;;;;;;5079722;28;20057;-88
2024/01/28 11:21:12;;;;;;;1999.90;999.90;;;;;;;;;;5074560;28;20140;-92
2024/01/28 11:23:43;;;;;;;1999.90;999.90;;;;;;;;;;5074991;28;20408;-90
2024/01/28 11:26:13;;;;;;;1999.90;999.90;;;;;;;;;;5078259;28;20090;-89
2024/01/28 11:28:47;;;;;;;1999.90;999.90;;;;;;;;;;5080483;28;20151;-89
2024/01/28 11:31:30;;;;;;;1999.90;999.90;;;;;;;;;;5080867;28;20053;-88
2024/01/28 11:33:57;;;;;;;1999.90;999.90;;;;;;;;;;5076559;28;20055;-88
2024/01/28 11:36:27;;;;;;;1999.90;999.90;;;;;;;;;;5078840;28;20064;-89
2024/01/28 11:39:01;;;;;;;1999.90;999.90;;;;;;;;;;5071968;28;20052;-86
2024/01/28 11:41:32;;;;;;;1999.90;999.90;;;;;;;;;;5079137;28;20578;-84
2024/01/28 11:44:00;;;;;;;1999.90;999.90;;;;;;;;;;5076824;28;20107;-87
2024/01/28 11:46:27;;;;;;;1999.90;999.90;;;;;;;;;;5070319;28;20044;-85
2024/01/28 11:48:53;;;;;;;1999.90;999.90;;;;;;;;;;5074563;28;20049;-86
2024/01/28 11:51:20;;;;;;;1999.90;999.90;;;;;;;;;;5081524;28;20053;-85
2024/01/28 11:53:47;;;;;;;1999.90;999.90;;;;;;;;;;5079294;28;20404;-87
2024/01/28 11:56:14;;;;;;;1999.90;999.90;;;;;;;;;;5073783;28;20062;-85
2024/01/28 11:58:40;;;;;;;1999.90;999.90;;;;;;;;;;5074922;28;20050;-86
2024/01/28 12:01:08;;;;;;;1999.90;999.90;;;;;;;;;;5069400;28;20041;-85
2024/01/28 12:03:34;;;;;;;1999.90;999.90;;;;;;;;;;5080992;28;20044;-85
2024/01/28 12:06:01;;;;;;;1999.90;999.90;;;;;;;;;;5066112;28;20045;-85
2024/01/28 12:08:28;;;;;;;1999.90;999.90;;;;;;;;;;5064758;28;20049;-81
2024/01/28 12:10:58;;;;;;;1999.90;999.90;;;;;;;;;;5078801;28;20044;-86
2024/01/28 12:13:25;;;;;;;1999.90;999.90;;;;;;;;;;5080948;28;20127;-83
2024/01/28 12:15:52;;;;;;;1999.90;999.90;;;;;;;;;;5081811;28;20044;-84
2024/01/28 12:18:22;;;;;;;1999.90;999.90;;;;;;;;;;5079243;28;20044;-88
2024/01/28 12:20:50;;;;;;;1999.90;999.90;;;;;;;;;;5081301;28;20049;-85
2024/01/28 12:23:19;;;;;;;1999.90;999.90;;;;;;;;;;5077923;28;20404;-86
2024/01/28 12:25:45;;;;;;;1999.90;999.90;;;;;;;;;;5079579;28;20059;-86
2024/01/28 12:28:12;;;;;;;1999.90;999.90;;;;;;;;;;5080568;28;20071;-87
2024/01/28 12:30:39;;;;;;;1999.90;999.90;;;;;;;;;;5076337;28;20052;-85
2024/01/28 12:33:05;;;;;;;1999.90;999.90;;;;;;;;;;5082077;28;20044;-86
2024/01/28 12:35:33;;;;;;;1999.90;999.90;;;;;;;;;;5081573;28;20052;-86
2024/01/28 12:38:00;;;;;;;1999.90;999.90;;;;;;;;;;5081909;28;20048;-85
2024/01/28 12:40:26;;;;;;;1999.90;999.90;;;;;;;;;;5080091;28;20059;-86
2024/01/28 12:42:53;;;;;;;1999.90;999.90;;;;;;;;;;5080151;28;20130;-82
2024/01/28 12:45:21;;;;;;;1999.90;999.90;;;;;;;;;;5079385;28;20040;-86
2024/01/28 12:47:47;;;;;;;1999.90;999.90;;;;;;;;;;5088252;28;20056;-89
2024/01/28 12:50:14;;;;;;;1999.90;999.90;;;;;;;;;;5079381;28;20062;-86
2024/01/28 12:52:42;;;;;;;1999.90;999.90;;;;;;;;;;5072157;28;20131;-82
2024/01/28 12:55:09;;;;;;;1999.90;999.90;;;;;;;;;;5079814;28;20408;-85
2024/01/28 12:57:38;;;;;;;1999.90;999.90;;;;;;;;;;5088495;28;20385;-88
2024/01/28 13:00:06;;;;;;;1999.90;999.90;;;;;;;;;;5076936;28;20894;-84
2024/01/28 13:02:33;;;;;;;1999.90;999.90;;;;;;;;;;5076828;28;20053;-87
2024/01/28 13:05:00;;;;;;;1999.90;999.90;;;;;;;;;;5063543;28;20045;-87
2024/01/28 13:07:26;;;;;;;1999.90;999.90;;;;;;;;;;5067430;28;20047;-84
2024/01/28 13:09:54;;;;;;;1999.90;999.90;;;;;;;;;;5058438;28;20041;-88
2024/01/28 13:12:21;;;;;;;1999.90;999.90;;;;;;;;;;5059686;28;20079;-90
2024/01/28 13:14:47;;;;;;;1999.90;999.90;;;;;;;;;;5050946;28;20057;-81
2024/01/28 13:17:14;;;;;;;1999.90;999.90;;;;;;;;;;5062297;28;20040;-85
2024/01/28 13:19:40;;;;;;;1999.90;999.90;;;;;;;;;;5064562;28;20041;-85
2024/01/28 13:22:07;;;;;;;1999.90;999.90;;;;;;;;;;5062129;28;20041;-81
2024/01/28 13:24:33;;;;;;;1999.90;999.90;;;;;;;;;;5057444;28;20573;-82
2024/01/28 13:27:01;;;;;;;1999.90;999.90;;;;;;;;;;5063468;28;20059;-81
2024/01/28 13:29:29;;;;;;;1999.90;999.90;;;;;;;;;;5059211;28;20037;-82
2024/01/28 13:31:56;;;;;;;1999.90;999.90;;;;;;;;;;5063519;28;20132;-84
2024/01/28 13:34:23;;;;;;;1999.90;999.90;;;;;;;;;;5057599;28;20136;-82
2024/01/28 13:36:50;;;;;;;1999.90;999.90;;;;;;;;;;5060412;28;20045;-84
2024/01/28 13:39:16;;;;;;;1999.90;999.90;;;;;;;;;;5061119;28;20045;-83
2024/01/28 13:41:43;;;;;;;1999.90;999.90;;;;;;;;;;5058579;28;20497;-80